Airfield :







YOU CAN JOIN US ON...

 
LOGIN :

Register | Disclaimer

   EN    FR    IT 

 









Legend :    VFR   Marginal VFR   IFR   Intensive IFR   Very Intensive IFR
Visi :
Ceiling :
>= 8 km
>= 3000ft
5 to 8 km
1000 to 3000 ft
1500m to 5 km
500 to 1000 ft
800 to 1500m
200 to 500 ft
< 800m
< 200 ft
Symbols :   Thunderstorms  Fog  Heavy snow  Heavy precipitations  Wind > 20 kt






- Airport Elevation : 74 ft
- IATA code : PMV


SVMG - Del Caribe Int. Gen Santiago M

CURRENT METAR :
  • 210302Z AUTO 10012KT NCD 25/23 Q1014

EXPIRED METARs :
  • 210202Z AUTO 09011KT NCD 30/22 Q1014
  • 210102Z AUTO 09014KT NCD 25/22 Q1012

TAF TAF SVMG
Valid from the 21 at 00:00 until the 22 at 00:00 UTC


202200Z 2100/2200 10008KT 9999 SCT016 SCT080 TX31/18Z TN21/07Z
TEMPO 2100/2104 08010KT 8000 -DZ BKN016
FM202300 08010KT 9999 SCT010 SCT080 9999 SCT080



MET'MAP, your aeronautical weather chart ! - Copyright ORBIFLY December 2007 - Disclaimer

ORBIFLY MET'MAP TEAM :

Programming & Development : Alexandra Zaïnal
Concept & original design : Baudouin d'Aumeries
Assistance for programming : Marc-Olivier Méhu
Technical & hardware support : Manuel Goepfert

Contact : metmap@orbifly.com




SOURCES & CREDITS :

   NOAA